sensor_id;sensor_type;location;lat;lon;timestamp;pressure;altitude;pressure_sealevel;temperature;humidity
59951;BME280;45812;53.540;9.774;2022-12-29T00:01:30;100092.91;;;7.21;100.00
59951;BME280;45812;53.540;9.774;2022-12-29T00:03:55;100095.56;;;7.21;100.00
59951;BME280;45812;53.540;9.774;2022-12-29T00:06:21;100096.22;;;7.23;100.00
59951;BME280;45812;53.540;9.774;2022-12-29T00:08:46;100092.28;;;7.27;100.00
59951;BME280;45812;53.540;9.774;2022-12-29T00:11:20;100102.56;;;7.31;100.00
59951;BME280;45812;53.540;9.774;2022-12-29T00:13:45;100089.84;;;7.42;100.00
59951;BME280;45812;53.540;9.774;2022-12-29T00:16:32;100069.81;;;7.40;100.00
59951;BME280;45812;53.540;9.774;2022-12-29T00:18:58;100066.16;;;7.33;100.00
59951;BME280;45812;53.540;9.774;2022-12-29T00:21:24;100057.56;;;7.39;100.00
59951;BME280;45812;53.540;9.774;2022-12-29T00:24:13;100059.28;;;7.48;100.00
59951;BME280;45812;53.540;9.774;2022-12-29T00:26:55;100067.00;;;7.41;100.00
59951;BME280;45812;53.540;9.774;2022-12-29T00:29:40;100066.06;;;7.50;100.00
59951;BME280;45812;53.540;9.774;2022-12-29T00:32:24;100057.97;;;7.52;100.00
59951;BME280;45812;53.540;9.774;2022-12-29T00:35:17;100056.47;;;7.57;100.00
59951;BME280;45812;53.540;9.774;2022-12-29T00:37:46;100033.78;;;7.47;100.00
59951;BME280;45812;53.540;9.774;2022-12-29T00:40:31;100057.31;;;7.58;100.00
59951;BME280;45812;53.540;9.774;2022-12-29T00:43:15;100039.97;;;7.64;100.00
59951;BME280;45812;53.540;9.774;2022-12-29T00:45:58;100036.97;;;7.67;100.00
59951;BME280;45812;53.540;9.774;2022-12-29T00:48:24;100049.72;;;7.63;100.00
59951;BME280;45812;53.540;9.774;2022-12-29T00:51:08;100035.94;;;7.59;100.00
59951;BME280;45812;53.540;9.774;2022-12-29T00:53:34;100059.63;;;7.61;100.00
59951;BME280;45812;53.540;9.774;2022-12-29T00:56:00;100042.91;;;7.60;100.00
59951;BME280;45812;53.540;9.774;2022-12-29T00:58:29;100049.72;;;7.71;100.00
59951;BME280;45812;53.540;9.774;2022-12-29T01:01:03;100024.38;;;7.60;100.00
59951;BME280;45812;53.540;9.774;2022-12-29T01:03:28;100034.13;;;7.60;100.00
59951;BME280;45812;53.540;9.774;2022-12-29T01:05:54;100031.03;;;7.73;100.00
59951;BME280;45812;53.540;9.774;2022-12-29T01:08:19;100030.19;;;7.80;100.00
59951;BME280;45812;53.540;9.774;2022-12-29T01:10:44;100012.63;;;7.79;100.00
59951;BME280;45812;53.540;9.774;2022-12-29T01:13:09;100027.22;;;7.75;100.00
59951;BME280;45812;53.540;9.774;2022-12-29T01:15:35;100018.09;;;7.78;100.00
59951;BME280;45812;53.540;9.774;2022-12-29T01:18:00;100013.47;;;7.80;100.00
59951;BME280;45812;53.540;9.774;2022-12-29T01:20:25;100017.63;;;7.82;100.00
59951;BME280;45812;53.540;9.774;2022-12-29T01:22:52;100010.84;;;7.88;100.00
59951;BME280;45812;53.540;9.774;2022-12-29T01:25:17;100009.00;;;7.97;100.00
59951;BME280;45812;53.540;9.774;2022-12-29T01:27:43;100012.66;;;7.96;100.00
59951;BME280;45812;53.540;9.774;2022-12-29T01:30:08;100000.06;;;7.89;100.00
59951;BME280;45812;53.540;9.774;2022-12-29T01:32:34;100003.38;;;7.92;100.00
59951;BME280;45812;53.540;9.774;2022-12-29T01:34:59;99988.47;;;7.90;100.00
59951;BME280;45812;53.540;9.774;2022-12-29T01:37:25;99991.97;;;7.91;100.00
59951;BME280;45812;53.540;9.774;2022-12-29T01:39:50;100003.38;;;7.92;100.00
59951;BME280;45812;53.540;9.774;2022-12-29T01:42:17;99996.59;;;7.89;100.00
59951;BME280;45812;53.540;9.774;2022-12-29T01:44:54;99994.09;;;7.96;100.00
59951;BME280;45812;53.540;9.774;2022-12-29T01:49:57;99978.69;;;7.99;100.00
59951;BME280;45812;53.540;9.774;2022-12-29T01:52:26;99981.50;;;7.98;100.00
59951;BME280;45812;53.540;9.774;2022-12-29T01:54:55;99985.00;;;7.98;100.00
59951;BME280;45812;53.540;9.774;2022-12-29T01:57:29;99986.34;;;8.02;100.00
59951;BME280;45812;53.540;9.774;2022-12-29T02:00:04;99975.56;;;8.04;100.00
59951;BME280;45812;53.540;9.774;2022-12-29T02:02:32;99984.84;;;8.00;100.00
59951;BME280;45812;53.540;9.774;2022-12-29T02:04:59;99983.53;;;8.04;100.00
59951;BME280;45812;53.540;9.774;2022-12-29T02:07:27;99981.03;;;8.02;100.00
59951;BME280;45812;53.540;9.774;2022-12-29T02:09:54;99968.94;;;8.00;100.00
59951;BME280;45812;53.540;9.774;2022-12-29T02:12:21;99976.38;;;7.96;100.00
59951;BME280;45812;53.540;9.774;2022-12-29T02:14:49;99957.66;;;7.98;100.00
59951;BME280;45812;53.540;9.774;2022-12-29T02:17:32;99952.06;;;8.01;100.00
59951;BME280;45812;53.540;9.774;2022-12-29T02:23:15;99949.56;;;8.07;100.00
59951;BME280;45812;53.540;9.774;2022-12-29T02:26:07;99942.44;;;8.00;100.00
59951;BME280;45812;53.540;9.774;2022-12-29T02:29:05;99939.28;;;8.04;100.00
59951;BME280;45812;53.540;9.774;2022-12-29T02:31:43;99928.66;;;8.12;100.00
59951;BME280;45812;53.540;9.774;2022-12-29T02:34:36;99934.66;;;8.06;100.00
59951;BME280;45812;53.540;9.774;2022-12-29T02:37:17;99916.56;;;8.10;100.00
59951;BME280;45812;53.540;9.774;2022-12-29T02:43:02;99901.16;;;8.13;100.00
59951;BME280;45812;53.540;9.774;2022-12-29T02:45:44;99912.09;;;8.10;100.00
59951;BME280;45812;53.540;9.774;2022-12-29T02:48:23;99910.44;;;8.09;100.00
59951;BME280;45812;53.540;9.774;2022-12-29T02:50:59;99916.56;;;8.10;100.00
59951;BME280;45812;53.540;9.774;2022-12-29T02:53:26;99911.25;;;8.18;100.00
59951;BME280;45812;53.540;9.774;2022-12-29T02:56:11;99921.19;;;8.16;100.00
59951;BME280;45812;53.540;9.774;2022-12-29T02:58:36;99913.91;;;8.18;100.00
59951;BME280;45812;53.540;9.774;2022-12-29T03:01:26;99900.47;;;8.28;100.00
59951;BME280;45812;53.540;9.774;2022-12-29T03:04:12;99912.06;;;8.27;100.00
59951;BME280;45812;53.540;9.774;2022-12-29T03:06:55;99901.13;;;8.30;100.00
59951;BME280;45812;53.540;9.774;2022-12-29T03:12:36;99891.22;;;8.24;100.00
59951;BME280;45812;53.540;9.774;2022-12-29T03:15:50;99884.88;;;8.33;100.00
59951;BME280;45812;53.540;9.774;2022-12-29T03:18:42;99894.00;;;8.30;100.00
59951;BME280;45812;53.540;9.774;2022-12-29T03:23:45;99891.84;;;8.34;100.00
59951;BME280;45812;53.540;9.774;2022-12-29T03:26:14;99899.97;;;8.32;100.00
59951;BME280;45812;53.540;9.774;2022-12-29T03:28:54;99872.97;;;8.37;100.00
59951;BME280;45812;53.540;9.774;2022-12-29T03:31:23;99864.16;;;8.36;100.00
59951;BME280;45812;53.540;9.774;2022-12-29T03:33:48;99879.41;;;8.42;100.00
59951;BME280;45812;53.540;9.774;2022-12-29T03:36:25;99870.81;;;8.40;100.00
59951;BME280;45812;53.540;9.774;2022-12-29T03:39:00;99865.34;;;8.34;100.00
59951;BME280;45812;53.540;9.774;2022-12-29T03:41:30;99880.25;;;8.43;100.00
59951;BME280;45812;53.540;9.774;2022-12-29T03:43:56;99874.28;;;8.41;100.00
59951;BME280;45812;53.540;9.774;2022-12-29T03:46:22;99852.84;;;8.50;100.00
59951;BME280;45812;53.540;9.774;2022-12-29T03:48:47;99863.16;;;8.45;100.00
59951;BME280;45812;53.540;9.774;2022-12-29T03:51:12;99866.81;;;8.44;100.00
59951;BME280;45812;53.540;9.774;2022-12-29T03:53:37;99855.19;;;8.45;100.00
59951;BME280;45812;53.540;9.774;2022-12-29T03:56:03;99851.19;;;8.49;100.00
59951;BME280;45812;53.540;9.774;2022-12-29T03:58:29;99854.31;;;8.53;100.00
59951;BME280;45812;53.540;9.774;2022-12-29T04:00:54;99829.63;;;8.53;100.00
59951;BME280;45812;53.540;9.774;2022-12-29T04:03:19;99835.16;;;8.43;100.00
59951;BME280;45812;53.540;9.774;2022-12-29T04:05:45;99862.50;;;8.43;100.00
59951;BME280;45812;53.540;9.774;2022-12-29T04:08:10;99825.06;;;8.38;100.00
59951;BME280;45812;53.540;9.774;2022-12-29T04:10:35;99832.34;;;8.44;100.00
59951;BME280;45812;53.540;9.774;2022-12-29T04:13:00;99828.84;;;8.44;100.00
59951;BME280;45812;53.540;9.774;2022-12-29T04:15:26;99827.31;;;8.49;100.00
59951;BME280;45812;53.540;9.774;2022-12-29T04:17:51;99827.03;;;8.44;100.00
59951;BME280;45812;53.540;9.774;2022-12-29T04:20:16;99831.81;;;8.49;100.00
59951;BME280;45812;53.540;9.774;2022-12-29T04:23:04;99835.91;;;8.60;100.00
59951;BME280;45812;53.540;9.774;2022-12-29T04:25:31;99831.59;;;8.59;100.00
59951;BME280;45812;53.540;9.774;2022-12-29T04:27:57;99822.31;;;8.55;100.00
59951;BME280;45812;53.540;9.774;2022-12-29T04:30:22;99822.47;;;8.61;100.00
59951;BME280;45812;53.540;9.774;2022-12-29T04:32:47;99807.84;;;8.65;100.00
59951;BME280;45812;53.540;9.774;2022-12-29T04:35:13;99813.69;;;8.61;100.00
59951;BME280;45812;53.540;9.774;2022-12-29T04:37:38;99809.16;;;8.69;100.00
59951;BME280;45812;53.540;9.774;2022-12-29T04:40:04;99808.81;;;8.72;100.00
59951;BME280;45812;53.540;9.774;2022-12-29T04:42:29;99808.31;;;8.69;100.00
59951;BME280;45812;53.540;9.774;2022-12-29T04:44:54;99800.53;;;8.67;100.00
59951;BME280;45812;53.540;9.774;2022-12-29T04:47:19;99808.31;;;8.69;100.00
59951;BME280;45812;53.540;9.774;2022-12-29T04:49:45;99796.06;;;8.68;100.00
59951;BME280;45812;53.540;9.774;2022-12-29T04:52:10;99812.28;;;8.73;100.00
59951;BME280;45812;53.540;9.774;2022-12-29T04:54:36;99788.56;;;8.71;100.00
59951;BME280;45812;53.540;9.774;2022-12-29T04:57:01;99792.19;;;8.78;100.00
59951;BME280;45812;53.540;9.774;2022-12-29T04:59:26;99802.34;;;8.75;100.00
59951;BME280;45812;53.540;9.774;2022-12-29T05:01:51;99793.84;;;8.79;100.00
59951;BME280;45812;53.540;9.774;2022-12-29T05:04:17;99789.22;;;8.73;100.00
59951;BME280;45812;53.540;9.774;2022-12-29T05:06:42;99789.72;;;8.77;100.00
59951;BME280;45812;53.540;9.774;2022-12-29T05:09:07;99784.78;;;8.74;100.00
59951;BME280;45812;53.540;9.774;2022-12-29T05:11:32;99792.56;;;8.75;100.00
59951;BME280;45812;53.540;9.774;2022-12-29T05:13:58;99784.06;;;8.80;100.00
59951;BME280;45812;53.540;9.774;2022-12-29T05:16:23;99809.78;;;8.79;100.00
59951;BME280;45812;53.540;9.774;2022-12-29T05:18:48;99820.38;;;8.79;100.00
59951;BME280;45812;53.540;9.774;2022-12-29T05:21:13;99800.44;;;8.84;100.00
59951;BME280;45812;53.540;9.774;2022-12-29T05:23:38;99794.97;;;8.85;100.00
59951;BME280;45812;53.540;9.774;2022-12-29T05:26:04;99794.59;;;8.88;100.00
59951;BME280;45812;53.540;9.774;2022-12-29T05:28:29;99784.16;;;8.87;100.00
59951;BME280;45812;53.540;9.774;2022-12-29T05:30:54;99789.63;;;8.93;100.00
59951;BME280;45812;53.540;9.774;2022-12-29T05:33:20;99796.91;;;8.91;100.00
59951;BME280;45812;53.540;9.774;2022-12-29T05:35:45;99795.25;;;8.90;100.00
59951;BME280;45812;53.540;9.774;2022-12-29T05:38:11;99811.53;;;8.87;100.00
59951;BME280;45812;53.540;9.774;2022-12-29T05:40:36;99801.91;;;8.86;100.00
59951;BME280;45812;53.540;9.774;2022-12-29T05:43:01;99807.50;;;8.91;100.00
59951;BME280;45812;53.540;9.774;2022-12-29T05:45:27;99799.63;;;8.83;100.00
59951;BME280;45812;53.540;9.774;2022-12-29T05:47:52;99797.97;;;8.82;100.00
59951;BME280;45812;53.540;9.774;2022-12-29T05:50:17;99797.50;;;8.78;100.00
59951;BME280;45812;53.540;9.774;2022-12-29T05:52:43;99813.44;;;8.78;100.00
59951;BME280;45812;53.540;9.774;2022-12-29T05:55:08;99789.53;;;8.78;100.00
59951;BME280;45812;53.540;9.774;2022-12-29T05:57:34;99801.00;;;8.71;100.00
59951;BME280;45812;53.540;9.774;2022-12-29T05:59:59;99794.88;;;8.70;100.00
59951;BME280;45812;53.540;9.774;2022-12-29T06:02:24;99819.25;;;8.74;100.00
59951;BME280;45812;53.540;9.774;2022-12-29T06:04:50;99799.84;;;8.73;100.00
59951;BME280;45812;53.540;9.774;2022-12-29T06:07:15;99804.00;;;8.76;100.00
59951;BME280;45812;53.540;9.774;2022-12-29T06:09:40;99824.50;;;8.82;100.00
59951;BME280;45812;53.540;9.774;2022-12-29T06:12:06;99807.75;;;8.82;100.00
59951;BME280;45812;53.540;9.774;2022-12-29T06:14:31;99817.19;;;8.84;100.00
59951;BME280;45812;53.540;9.774;2022-12-29T06:16:56;99809.16;;;8.92;100.00
59951;BME280;45812;53.540;9.774;2022-12-29T06:19:21;99797.97;;;8.82;100.00
59951;BME280;45812;53.540;9.774;2022-12-29T06:21:47;99821.91;;;8.74;100.00
59951;BME280;45812;53.540;9.774;2022-12-29T06:24:12;99816.25;;;8.77;100.00
59951;BME280;45812;53.540;9.774;2022-12-29T06:26:37;99801.84;;;8.71;100.00
59951;BME280;45812;53.540;9.774;2022-12-29T06:29:02;99811.16;;;8.67;100.00
59951;BME280;45812;53.540;9.774;2022-12-29T06:31:28;99807.50;;;8.68;100.00
59951;BME280;45812;53.540;9.774;2022-12-29T06:33:53;99817.94;;;8.70;100.00
59951;BME280;45812;53.540;9.774;2022-12-29T06:36:18;99813.16;;;8.65;100.00
59951;BME280;45812;53.540;9.774;2022-12-29T06:38:43;99811.03;;;8.61;100.00
59951;BME280;45812;53.540;9.774;2022-12-29T06:41:09;99803.44;;;8.58;100.00
59951;BME280;45812;53.540;9.774;2022-12-29T06:43:34;99800.91;;;8.64;100.00
59951;BME280;45812;53.540;9.774;2022-12-29T06:46:03;99783.81;;;8.67;100.00
59951;BME280;45812;53.540;9.774;2022-12-29T06:48:28;99788.81;;;8.62;100.00
59951;BME280;45812;53.540;9.774;2022-12-29T06:50:53;99786.63;;;8.65;100.00
59951;BME280;45812;53.540;9.774;2022-12-29T06:53:19;99794.19;;;8.76;100.00
59951;BME280;45812;53.540;9.774;2022-12-29T06:55:44;99799.38;;;8.70;100.00
59951;BME280;45812;53.540;9.774;2022-12-29T06:58:09;99788.75;;;8.70;100.00
59951;BME280;45812;53.540;9.774;2022-12-29T07:00:34;99800.34;;;8.77;100.00
59951;BME280;45812;53.540;9.774;2022-12-29T07:03:00;99799.97;;;8.80;100.00
59951;BME280;45812;53.540;9.774;2022-12-29T07:05:26;99801.63;;;8.81;100.00
59951;BME280;45812;53.540;9.774;2022-12-29T07:07:53;99798.31;;;8.79;100.00
59951;BME280;45812;53.540;9.774;2022-12-29T07:10:18;99809.63;;;8.73;100.00
59951;BME280;45812;53.540;9.774;2022-12-29T07:12:44;99800.44;;;8.61;100.00
59951;BME280;45812;53.540;9.774;2022-12-29T07:15:09;99804.91;;;8.60;100.00
59951;BME280;45812;53.540;9.774;2022-12-29T07:17:34;99811.50;;;8.64;100.00
59951;BME280;45812;53.540;9.774;2022-12-29T07:20:00;99805.91;;;8.59;100.00
59951;BME280;45812;53.540;9.774;2022-12-29T07:22:25;99819.41;;;8.72;100.00
59951;BME280;45812;53.540;9.774;2022-12-29T07:24:50;99806.03;;;8.66;100.00
59951;BME280;45812;53.540;9.774;2022-12-29T07:27:15;99814.34;;;8.63;100.00
59951;BME280;45812;53.540;9.774;2022-12-29T07:29:41;99812.50;;;8.63;100.00
59951;BME280;45812;53.540;9.774;2022-12-29T07:32:06;99818.66;;;8.64;100.00
59951;BME280;45812;53.540;9.774;2022-12-29T07:34:31;99807.03;;;8.65;100.00
59951;BME280;45812;53.540;9.774;2022-12-29T07:36:56;99815.34;;;8.62;100.00
59951;BME280;45812;53.540;9.774;2022-12-29T07:39:22;99818.34;;;8.59;100.00
59951;BME280;45812;53.540;9.774;2022-12-29T07:41:47;99823.81;;;8.57;100.00
59951;BME280;45812;53.540;9.774;2022-12-29T07:44:12;99828.97;;;8.59;100.00
59951;BME280;45812;53.540;9.774;2022-12-29T07:46:37;99823.31;;;8.62;100.00
59951;BME280;45812;53.540;9.774;2022-12-29T07:49:03;99824.97;;;8.55;100.00
59951;BME280;45812;53.540;9.774;2022-12-29T07:51:28;99821.19;;;8.57;100.00
59951;BME280;45812;53.540;9.774;2022-12-29T07:53:53;99829.13;;;8.57;100.00
59951;BME280;45812;53.540;9.774;2022-12-29T07:56:18;99823.00;;;8.57;100.00
59951;BME280;45812;53.540;9.774;2022-12-29T07:58:44;99831.91;;;8.64;100.00
59951;BME280;45812;53.540;9.774;2022-12-29T08:01:09;99835.09;;;8.59;100.00
59951;BME280;45812;53.540;9.774;2022-12-29T08:03:34;99838.75;;;8.58;100.00
59951;BME280;45812;53.540;9.774;2022-12-29T08:06:01;99853.03;;;8.49;100.00
59951;BME280;45812;53.540;9.774;2022-12-29T08:08:26;99856.06;;;8.38;100.00
59951;BME280;45812;53.540;9.774;2022-12-29T08:10:54;99851.06;;;8.43;100.00
59951;BME280;45812;53.540;9.774;2022-12-29T08:13:19;99855.06;;;8.39;100.00
59951;BME280;45812;53.540;9.774;2022-12-29T08:15:47;99850.25;;;8.42;100.00
59951;BME280;45812;53.540;9.774;2022-12-29T08:18:12;99871.47;;;8.34;100.00
59951;BME280;45812;53.540;9.774;2022-12-29T08:20:37;99880.09;;;8.28;100.00
59951;BME280;45812;53.540;9.774;2022-12-29T08:23:02;99860.53;;;8.29;100.00
59951;BME280;45812;53.540;9.774;2022-12-29T08:25:28;99877.44;;;8.28;100.00
59951;BME280;45812;53.540;9.774;2022-12-29T08:27:53;99896.16;;;8.43;100.00
59951;BME280;45812;53.540;9.774;2022-12-29T08:30:18;99873.34;;;8.65;100.00
59951;BME280;45812;53.540;9.774;2022-12-29T08:32:43;99895.69;;;8.70;100.00
59951;BME280;45812;53.540;9.774;2022-12-29T08:35:09;99883.06;;;8.80;100.00
59951;BME280;45812;53.540;9.774;2022-12-29T08:37:34;99882.19;;;8.88;100.00
59951;BME280;45812;53.540;9.774;2022-12-29T08:39:59;99903.28;;;8.82;100.00
59951;BME280;45812;53.540;9.774;2022-12-29T08:42:28;99900.50;;;8.75;100.00
59951;BME280;45812;53.540;9.774;2022-12-29T08:44:56;99887.25;;;8.75;100.00
59951;BME280;45812;53.540;9.774;2022-12-29T08:47:21;99887.91;;;8.69;100.00
59951;BME280;45812;53.540;9.774;2022-12-29T08:49:47;99885.25;;;8.77;100.00
59951;BME280;45812;53.540;9.774;2022-12-29T08:52:12;99883.06;;;9.12;100.00
59951;BME280;45812;53.540;9.774;2022-12-29T08:54:37;99890.13;;;9.19;100.00
59951;BME280;45812;53.540;9.774;2022-12-29T08:57:02;99901.88;;;9.25;100.00
59951;BME280;45812;53.540;9.774;2022-12-29T08:59:28;99887.66;;;9.18;100.00
59951;BME280;45812;53.540;9.774;2022-12-29T09:01:53;99896.63;;;9.17;100.00
59951;BME280;45812;53.540;9.774;2022-12-29T09:04:18;99896.19;;;9.05;100.00
59951;BME280;45812;53.540;9.774;2022-12-29T09:06:44;99893.06;;;9.01;100.00
59951;BME280;45812;53.540;9.774;2022-12-29T09:09:09;99918.31;;;8.97;100.00
59951;BME280;45812;53.540;9.774;2022-12-29T09:11:36;99908.53;;;8.98;100.00
59951;BME280;45812;53.540;9.774;2022-12-29T09:14:01;99906.50;;;9.00;100.00
59951;BME280;45812;53.540;9.774;2022-12-29T09:16:26;99918.06;;;9.15;100.00
59951;BME280;45812;53.540;9.774;2022-12-29T09:18:52;99899.41;;;9.23;100.00
59951;BME280;45812;53.540;9.774;2022-12-29T09:21:17;99919.56;;;9.09;100.00
59951;BME280;45812;53.540;9.774;2022-12-29T09:23:43;99925.28;;;8.90;100.00
59951;BME280;45812;53.540;9.774;2022-12-29T09:26:09;99926.28;;;8.89;100.00
59951;BME280;45812;53.540;9.774;2022-12-29T09:28:34;99923.34;;;9.15;100.00
59951;BME280;45812;53.540;9.774;2022-12-29T09:31:00;99922.66;;;9.44;100.00
59951;BME280;45812;53.540;9.774;2022-12-29T09:33:26;99915.75;;;9.35;100.00
59951;BME280;45812;53.540;9.774;2022-12-29T09:35:53;99928.44;;;9.25;100.00
59951;BME280;45812;53.540;9.774;2022-12-29T09:38:19;99938.41;;;9.23;100.00
59951;BME280;45812;53.540;9.774;2022-12-29T09:40:49;99930.63;;;9.21;100.00
59951;BME280;45812;53.540;9.774;2022-12-29T09:43:45;99940.28;;;9.14;100.00
59951;BME280;45812;53.540;9.774;2022-12-29T09:46:26;99957.78;;;9.00;100.00
59951;BME280;45812;53.540;9.774;2022-12-29T09:51:32;99926.44;;;8.96;100.00
59951;BME280;45812;53.540;9.774;2022-12-29T09:54:05;99939.66;;;9.04;100.00
59951;BME280;45812;53.540;9.774;2022-12-29T09:56:39;99942.53;;;9.25;100.00
59951;BME280;45812;53.540;9.774;2022-12-29T09:59:11;99936.75;;;9.22;100.00
59951;BME280;45812;53.540;9.774;2022-12-29T10:01:42;99946.72;;;9.20;100.00
59951;BME280;45812;53.540;9.774;2022-12-29T10:04:11;99938.97;;;9.10;100.00
59951;BME280;45812;53.540;9.774;2022-12-29T10:06:42;99959.13;;;9.27;100.00
59951;BME280;45812;53.540;9.774;2022-12-29T10:09:18;99956.53;;;9.42;100.00
59951;BME280;45812;53.540;9.774;2022-12-29T10:12:15;99969.09;;;9.48;100.00
59951;BME280;45812;53.540;9.774;2022-12-29T10:15:01;99945.88;;;9.50;100.00
59951;BME280;45812;53.540;9.774;2022-12-29T10:23:14;99948.63;;;9.34;100.00
59951;BME280;45812;53.540;9.774;2022-12-29T10:25:42;99962.91;;;9.33;100.00
59951;BME280;45812;53.540;9.774;2022-12-29T10:28:21;99939.03;;;9.56;100.00
59951;BME280;45812;53.540;9.774;2022-12-29T10:30:50;99949.75;;;9.85;100.00
59951;BME280;45812;53.540;9.774;2022-12-29T10:33:29;99946.03;;;9.94;100.00
59951;BME280;45812;53.540;9.774;2022-12-29T10:35:57;99940.47;;;9.81;100.00
59951;BME280;45812;53.540;9.774;2022-12-29T10:40:59;99943.72;;;9.91;100.00
59951;BME280;45812;53.540;9.774;2022-12-29T10:43:28;99937.13;;;10.40;97.24
59951;BME280;45812;53.540;9.774;2022-12-29T10:45:57;99938.31;;;10.37;97.67
59951;BME280;45812;53.540;9.774;2022-12-29T10:48:27;99933.47;;;10.41;98.13
59951;BME280;45812;53.540;9.774;2022-12-29T10:50:56;99930.53;;;10.36;97.70
59951;BME280;45812;53.540;9.774;2022-12-29T10:53:25;99921.00;;;10.26;98.06
59951;BME280;45812;53.540;9.774;2022-12-29T10:55:52;99932.22;;;10.14;98.42
59951;BME280;45812;53.540;9.774;2022-12-29T10:58:19;99989.34;;;10.18;97.10
59951;BME280;45812;53.540;9.774;2022-12-29T11:00:51;99933.31;;;10.42;97.32
59951;BME280;45812;53.540;9.774;2022-12-29T11:03:42;99938.66;;;10.93;93.19
59951;BME280;45812;53.540;9.774;2022-12-29T11:06:24;99929.06;;;11.13;94.42
59951;BME280;45812;53.540;9.774;2022-12-29T11:08:55;99947.09;;;11.69;89.79
59951;BME280;45812;53.540;9.774;2022-12-29T11:11:24;99947.06;;;11.83;87.08
59951;BME280;45812;53.540;9.774;2022-12-29T11:14:01;99931.78;;;12.55;84.56
59951;BME280;45812;53.540;9.774;2022-12-29T11:16:32;99926.34;;;12.76;81.99
59951;BME280;45812;53.540;9.774;2022-12-29T11:18:59;99937.84;;;12.42;80.84
59951;BME280;45812;53.540;9.774;2022-12-29T11:21:31;99958.44;;;11.92;83.00
59951;BME280;45812;53.540;9.774;2022-12-29T11:24:02;99972.84;;;11.40;85.83
59951;BME280;45812;53.540;9.774;2022-12-29T11:26:29;99926.78;;;11.10;86.79
59951;BME280;45812;53.540;9.774;2022-12-29T11:31:50;99919.81;;;11.09;87.66
59951;BME280;45812;53.540;9.774;2022-12-29T11:34:30;99918.94;;;10.87;87.90
59951;BME280;45812;53.540;9.774;2022-12-29T11:37:04;99929.78;;;10.71;89.88
59951;BME280;45812;53.540;9.774;2022-12-29T11:42:17;99942.94;;;10.43;91.60
59951;BME280;45812;53.540;9.774;2022-12-29T11:44:46;99929.06;;;10.48;92.39
59951;BME280;45812;53.540;9.774;2022-12-29T11:47:41;99927.88;;;10.50;92.03
59951;BME280;45812;53.540;9.774;2022-12-29T11:50:07;99936.78;;;10.28;92.37
59951;BME280;45812;53.540;9.774;2022-12-29T11:52:36;99929.28;;;11.12;90.19
59951;BME280;45812;53.540;9.774;2022-12-29T11:55:07;99941.31;;;11.08;89.48
59951;BME280;45812;53.540;9.774;2022-12-29T11:57:41;99960.91;;;10.71;90.63
59951;BME280;45812;53.540;9.774;2022-12-29T12:00:16;99942.72;;;11.04;90.08
59951;BME280;45812;53.540;9.774;2022-12-29T12:02:49;99955.59;;;10.85;89.85
59951;BME280;45812;53.540;9.774;2022-12-29T12:05:24;99929.53;;;10.66;92.84
59951;BME280;45812;53.540;9.774;2022-12-29T12:08:04;99973.28;;;10.49;94.38
59951;BME280;45812;53.540;9.774;2022-12-29T12:10:37;99934.13;;;10.43;94.94
59951;BME280;45812;53.540;9.774;2022-12-29T12:13:24;99962.03;;;10.61;94.78
59951;BME280;45812;53.540;9.774;2022-12-29T12:16:13;99940.81;;;10.68;93.90
59951;BME280;45812;53.540;9.774;2022-12-29T12:18:52;99956.59;;;10.55;95.10
59951;BME280;45812;53.540;9.774;2022-12-29T12:21:31;99965.69;;;10.46;96.17
59951;BME280;45812;53.540;9.774;2022-12-29T12:24:32;99934.78;;;10.45;97.48
59951;BME280;45812;53.540;9.774;2022-12-29T12:30:18;99929.34;;;10.23;100.00
59951;BME280;45812;53.540;9.774;2022-12-29T12:33:16;99926.50;;;10.02;100.00
59951;BME280;45812;53.540;9.774;2022-12-29T12:36:14;99937.41;;;9.92;100.00
59951;BME280;45812;53.540;9.774;2022-12-29T12:44:41;99935.63;;;10.08;99.86
59951;BME280;45812;53.540;9.774;2022-12-29T12:49:56;99936.59;;;9.69;100.00
59951;BME280;45812;53.540;9.774;2022-12-29T12:52:39;99952.38;;;9.70;100.00
59951;BME280;45812;53.540;9.774;2022-12-29T13:01:18;99966.75;;;9.99;97.94
59951;BME280;45812;53.540;9.774;2022-12-29T13:07:07;99971.72;;;9.56;100.00
59951;BME280;45812;53.540;9.774;2022-12-29T13:09:48;100017.13;;;9.07;100.00
59951;BME280;45812;53.540;9.774;2022-12-29T13:12:43;99988.38;;;8.72;100.00
59951;BME280;45812;53.540;9.774;2022-12-29T13:15:26;99996.75;;;8.44;100.00
59951;BME280;45812;53.540;9.774;2022-12-29T13:18:10;100011.31;;;8.32;100.00
59951;BME280;45812;53.540;9.774;2022-12-29T13:20:49;99987.31;;;8.26;100.00
59951;BME280;45812;53.540;9.774;2022-12-29T13:23:39;100013.66;;;8.35;100.00
59951;BME280;45812;53.540;9.774;2022-12-29T13:26:22;100009.84;;;8.22;100.00
59951;BME280;45812;53.540;9.774;2022-12-29T13:29:27;100008.69;;;8.16;100.00
59951;BME280;45812;53.540;9.774;2022-12-29T13:35:19;100017.31;;;8.10;100.00
59951;BME280;45812;53.540;9.774;2022-12-29T13:38:09;100019.81;;;8.19;100.00
59951;BME280;45812;53.540;9.774;2022-12-29T13:40:40;100018.63;;;8.14;100.00
59951;BME280;45812;53.540;9.774;2022-12-29T13:43:06;100056.75;;;8.21;100.00
59951;BME280;45812;53.540;9.774;2022-12-29T13:45:34;100056.41;;;8.08;100.00
59951;BME280;45812;53.540;9.774;2022-12-29T13:50:34;100039.00;;;8.05;100.00
59951;BME280;45812;53.540;9.774;2022-12-29T13:53:15;100048.44;;;8.08;100.00
59951;BME280;45812;53.540;9.774;2022-12-29T13:56:04;100089.88;;;8.09;100.00
59951;BME280;45812;53.540;9.774;2022-12-29T14:01:28;100103.78;;;7.44;100.00
59951;BME280;45812;53.540;9.774;2022-12-29T14:03:57;100128.94;;;7.14;100.00
59951;BME280;45812;53.540;9.774;2022-12-29T14:06:29;100105.59;;;6.84;100.00
59951;BME280;45812;53.540;9.774;2022-12-29T14:09:00;100151.22;;;6.60;100.00
59951;BME280;45812;53.540;9.774;2022-12-29T14:11:39;100120.69;;;6.48;100.00
59951;BME280;45812;53.540;9.774;2022-12-29T14:14:23;100148.53;;;6.34;100.00
59951;BME280;45812;53.540;9.774;2022-12-29T14:16:50;100111.06;;;6.38;100.00